createdAt,value
2022-10-19T00:04:06.000Z,7.20
2022-10-19T00:14:05.000Z,17.40
2022-10-19T00:24:05.000Z,13.70
2022-10-19T00:44:05.000Z,14.10
2022-10-19T00:54:05.000Z,15.10
2022-10-19T01:04:05.000Z,9.70
2022-10-19T01:14:05.000Z,10.30
2022-10-19T01:24:04.000Z,10.20
2022-10-19T01:34:04.000Z,12.40
2022-10-19T01:44:04.000Z,10.50
2022-10-19T01:54:04.000Z,9.30
2022-10-19T02:14:04.000Z,5.40
2022-10-19T02:24:04.000Z,2.60
2022-10-19T02:34:03.000Z,13.90
2022-10-19T02:44:03.000Z,10.30
2022-10-19T02:54:03.000Z,7.20
2022-10-19T03:04:03.000Z,10.40
2022-10-19T03:14:03.000Z,9.10
2022-10-19T03:24:03.000Z,7.20
2022-10-19T03:44:03.000Z,8.80
2022-10-19T03:54:02.000Z,10.40
2022-10-19T04:04:02.000Z,6.30
2022-10-19T04:14:02.000Z,16.60
2022-10-19T04:24:02.000Z,13.40
2022-10-19T04:34:02.000Z,4.80
2022-10-19T04:44:02.000Z,4.60
2022-10-19T04:54:02.000Z,6.20
2022-10-19T05:14:01.000Z,5.90
2022-10-19T05:24:01.000Z,5.50
2022-10-19T05:34:01.000Z,5.10
2022-10-19T05:44:01.000Z,13.00
2022-10-19T05:54:01.000Z,6.40
2022-10-19T06:04:01.000Z,5.80
2022-10-19T06:14:00.000Z,8.20
2022-10-19T06:24:00.000Z,15.10
2022-10-19T06:44:00.000Z,11.20
2022-10-19T06:54:00.000Z,11.10
2022-10-19T07:04:00.000Z,9.40
2022-10-19T07:14:00.000Z,4.60
2022-10-19T07:23:59.000Z,9.40
2022-10-19T07:33:59.000Z,7.80
2022-10-19T07:43:59.000Z,10.10
2022-10-19T07:53:59.000Z,5.30
2022-10-19T08:13:59.000Z,5.60
2022-10-19T08:23:59.000Z,5.40
2022-10-19T08:33:59.000Z,8.70
2022-10-19T08:43:58.000Z,2.10
2022-10-19T08:53:58.000Z,4.80
2022-10-19T09:03:58.000Z,4.40
2022-10-19T09:13:58.000Z,3.40
2022-10-19T09:23:58.000Z,6.70
2022-10-19T09:43:58.000Z,1.00
2022-10-19T09:53:57.000Z,1.30
2022-10-19T10:03:57.000Z,1.70
2022-10-19T10:13:57.000Z,0.70
2022-10-19T10:23:57.000Z,0.80
2022-10-19T10:23:57.000Z,0.80
2022-10-19T10:33:57.000Z,1.10
2022-10-19T10:43:57.000Z,2.60
2022-10-19T10:53:57.000Z,1.00
2022-10-19T11:13:56.000Z,0.70
2022-10-19T11:23:56.000Z,0.50
2022-10-19T11:33:56.000Z,1.20
2022-10-19T11:43:56.000Z,5.00
2022-10-19T11:53:56.000Z,0.60
2022-10-19T12:03:56.000Z,1.00
2022-10-19T12:13:55.000Z,1.30
2022-10-19T12:23:55.000Z,0.70
2022-10-19T12:43:55.000Z,0.50
2022-10-19T12:53:55.000Z,0.40
2022-10-19T13:03:55.000Z,1.40
2022-10-19T13:13:55.000Z,0.60
2022-10-19T13:23:55.000Z,1.40
2022-10-19T13:33:54.000Z,5.90
2022-10-19T13:43:54.000Z,7.70
2022-10-19T13:53:54.000Z,5.40
2022-10-19T14:13:54.000Z,0.70
2022-10-19T14:23:54.000Z,0.50
2022-10-19T14:33:54.000Z,0.50
2022-10-19T14:43:53.000Z,1.70
2022-10-19T14:53:53.000Z,0.60
2022-10-19T15:03:53.000Z,0.70
2022-10-19T15:13:53.000Z,0.50
2022-10-19T15:23:53.000Z,0.70
2022-10-19T15:43:53.000Z,3.80
2022-10-19T15:53:52.000Z,0.60
2022-10-19T16:03:52.000Z,4.90
2022-10-19T16:13:52.000Z,5.20
2022-10-19T16:23:52.000Z,0.60
2022-10-19T16:33:52.000Z,1.10
2022-10-19T16:43:52.000Z,0.70
2022-10-19T16:53:52.000Z,0.60
2022-10-19T17:13:51.000Z,2.20
2022-10-19T17:23:51.000Z,0.90
2022-10-19T17:33:51.000Z,3.60
2022-10-19T17:43:51.000Z,3.90
2022-10-19T17:53:51.000Z,8.10
2022-10-19T18:03:51.000Z,9.30
2022-10-19T18:13:51.000Z,10.00
2022-10-19T18:23:50.000Z,5.40
2022-10-19T18:43:50.000Z,13.50
2022-10-19T18:53:50.000Z,8.80
2022-10-19T19:03:50.000Z,10.90
2022-10-19T19:13:50.000Z,10.80
2022-10-19T19:23:50.000Z,12.70
2022-10-19T19:33:49.000Z,13.20
2022-10-19T19:43:49.000Z,12.80
2022-10-19T19:53:49.000Z,7.10
2022-10-19T20:13:49.000Z,15.30
2022-10-19T20:23:49.000Z,9.30
2022-10-19T20:33:49.000Z,17.40
2022-10-19T20:43:48.000Z,11.40
2022-10-19T21:19:23.000Z,13.60
2022-10-19T21:50:15.000Z,9.20
2022-10-19T22:10:32.000Z,14.90
2022-10-19T22:10:32.000Z,11.10
2022-10-19T22:41:07.000Z,12.00
